createdAt,value
2023-05-16T00:00:34.512Z,15.14
2023-05-16T00:01:34.673Z,15.11
2023-05-16T00:02:37.582Z,15.18
2023-05-16T00:03:34.672Z,15.17
2023-05-16T00:04:35.677Z,15.15
2023-05-16T00:05:34.631Z,15.18
2023-05-16T00:06:34.788Z,15.14
2023-05-16T00:07:34.546Z,15.13
2023-05-16T00:08:34.796Z,15.14
2023-05-16T00:09:34.911Z,15.16
2023-05-16T00:10:34.760Z,15.15
2023-05-16T00:11:34.797Z,15.14
2023-05-16T00:12:34.639Z,15.14
2023-05-16T00:13:34.649Z,15.11
2023-05-16T00:14:34.705Z,15.05
2023-05-16T00:15:34.719Z,15.05
2023-05-16T00:16:34.714Z,15.1
2023-05-16T00:17:35.125Z,15.11
2023-05-16T00:18:35.209Z,15.09
2023-05-16T00:19:34.699Z,15.15
2023-05-16T00:20:34.759Z,15.12
2023-05-16T00:21:34.959Z,15.09
2023-05-16T00:22:34.739Z,15.1
2023-05-16T00:23:34.790Z,15.07
2023-05-16T00:24:34.893Z,15.11
2023-05-16T00:25:34.832Z,15.05
2023-05-16T00:26:34.807Z,15.06
2023-05-16T00:27:35.548Z,15.06
2023-05-16T00:28:34.814Z,15.06
2023-05-16T00:29:35.253Z,15.02
2023-05-16T00:30:34.927Z,15.04
2023-05-16T00:31:35.127Z,15.05
2023-05-16T00:32:35.821Z,15.05
2023-05-16T00:33:35.367Z,14.97
2023-05-16T00:34:35.408Z,14.96
2023-05-16T00:35:35.395Z,15.02
2023-05-16T00:36:35.370Z,15.03
2023-05-16T00:37:35.422Z,15.07
2023-05-16T00:38:35.430Z,15.03
2023-05-16T00:39:35.410Z,14.99
2023-05-16T00:40:35.464Z,14.98
2023-05-16T00:41:35.412Z,14.99
2023-05-16T00:42:35.650Z,14.98
2023-05-16T00:43:35.651Z,14.91
2023-05-16T00:44:35.662Z,14.88
2023-05-16T00:45:35.703Z,14.9
2023-05-16T00:46:35.587Z,14.94
2023-05-16T00:47:35.949Z,14.92
2023-05-16T00:48:35.614Z,14.88
2023-05-16T00:49:35.653Z,14.9
2023-05-16T00:50:36.441Z,14.83
2023-05-16T00:51:36.710Z,14.84
2023-05-16T00:52:35.649Z,14.87
2023-05-16T00:53:35.970Z,14.87
2023-05-16T00:54:35.623Z,14.86
2023-05-16T00:55:35.707Z,14.85
2023-05-16T00:56:35.842Z,14.91
2023-05-16T00:57:35.846Z,14.91
2023-05-16T00:58:36.799Z,14.91
2023-05-16T00:59:35.728Z,14.94
2023-05-16T01:00:35.906Z,14.93
2023-05-16T01:01:36.195Z,14.86
2023-05-16T01:02:36.514Z,14.93
2023-05-16T01:03:36.521Z,14.85
2023-05-16T01:04:35.914Z,14.86
2023-05-16T01:05:36.215Z,14.91
2023-05-16T01:06:35.943Z,14.91
2023-05-16T01:07:36.006Z,14.88
2023-05-16T01:08:35.843Z,14.82
2023-05-16T01:09:36.058Z,14.83
2023-05-16T01:10:47.572Z,14.86
2023-05-16T01:12:55.933Z,14.86
2023-05-16T01:14:55.252Z,14.84
2023-05-16T01:15:56.296Z,14.82
2023-05-16T01:16:59.722Z,14.75
2023-05-16T01:22:11.267Z,14.82
2023-05-16T01:26:16.164Z,14.81
2023-05-16T01:27:16.585Z,14.77
2023-05-16T01:28:16.822Z,14.81
2023-05-16T01:29:15.798Z,14.81
2023-05-16T01:30:19.260Z,14.72
2023-05-16T01:31:15.738Z,14.72
2023-05-16T01:32:15.644Z,14.77
2023-05-16T01:33:15.667Z,14.76
2023-05-16T01:34:16.021Z,14.81
2023-05-16T01:35:16.696Z,14.74
2023-05-16T01:37:19.465Z,14.76
2023-05-16T01:38:22.142Z,14.76
2023-05-16T01:40:36.441Z,14.77
2023-05-16T01:41:31.061Z,14.7
2023-05-16T01:42:30.090Z,14.75
2023-05-16T01:44:31.900Z,14.75
2023-05-16T01:45:31.972Z,14.75
2023-05-16T01:46:33.758Z,14.79
2023-05-16T01:47:31.398Z,14.76
2023-05-16T01:48:38.760Z,14.75
2023-05-16T01:49:36.447Z,14.74
2023-05-16T01:50:36.646Z,14.71
2023-05-16T01:51:38.789Z,14.65
2023-05-16T01:52:38.586Z,14.67
2023-05-16T01:53:38.844Z,14.68
2023-05-16T01:54:37.596Z,14.67
2023-05-16T01:55:42.381Z,14.67
2023-05-16T01:56:39.253Z,14.65
2023-05-16T01:57:39.958Z,14.61
2023-05-16T01:58:39.138Z,14.66
2023-05-16T01:59:38.953Z,14.65
2023-05-16T02:00:39.474Z,14.65
2023-05-16T02:01:38.739Z,14.66
2023-05-16T02:02:38.827Z,14.65
2023-05-16T02:03:38.733Z,14.55
2023-05-16T02:04:38.734Z,14.52
2023-05-16T02:05:39.033Z,14.47
2023-05-16T02:06:38.850Z,14.44
2023-05-16T02:07:38.902Z,14.38
2023-05-16T02:08:38.846Z,14.35
2023-05-16T02:09:38.818Z,14.33
2023-05-16T02:10:38.859Z,14.25
2023-05-16T02:11:38.830Z,14.31
2023-05-16T02:12:38.933Z,14.33
2023-05-16T02:13:38.852Z,14.31
2023-05-16T02:14:38.865Z,14.32
2023-05-16T02:15:38.899Z,14.15
2023-05-16T02:16:38.942Z,14.17
2023-05-16T02:17:39.039Z,14.1
2023-05-16T02:18:39.062Z,14.12
2023-05-16T02:19:38.961Z,14.11
2023-05-16T02:20:38.939Z,14.1
2023-05-16T02:21:38.972Z,14.2
2023-05-16T02:22:39.052Z,14.23
2023-05-16T02:23:39.010Z,14.26
2023-05-16T02:24:39.000Z,14.25
2023-05-16T02:25:39.025Z,14.2
2023-05-16T02:26:39.027Z,14.19
2023-05-16T02:27:39.046Z,14.14
2023-05-16T02:28:39.076Z,14.21
2023-05-16T02:29:39.087Z,14.2
2023-05-16T02:30:39.146Z,14.17
2023-05-16T02:31:39.253Z,14.21
2023-05-16T02:32:39.450Z,14.19
2023-05-16T02:33:39.120Z,14.06
2023-05-16T02:34:39.149Z,14.14
2023-05-16T02:35:39.146Z,14.06
2023-05-16T02:36:39.190Z,13.92
2023-05-16T02:37:39.832Z,13.93
2023-05-16T02:38:39.203Z,13.95
2023-05-16T02:39:39.501Z,13.75
2023-05-16T02:40:39.194Z,13.57
2023-05-16T02:41:39.240Z,13.52
2023-05-16T02:42:39.265Z,13.37
2023-05-16T02:43:39.323Z,13.29
2023-05-16T02:44:39.280Z,13.23
2023-05-16T02:45:39.443Z,13.14
2023-05-16T02:46:39.323Z,13.02
2023-05-16T02:47:39.393Z,12.86
2023-05-16T02:48:39.361Z,12.96
2023-05-16T02:49:39.382Z,12.9
2023-05-16T02:50:39.357Z,12.91
2023-05-16T02:51:39.415Z,12.91
2023-05-16T02:52:39.401Z,12.84
2023-05-16T02:53:39.426Z,12.86
2023-05-16T02:54:39.401Z,12.69
2023-05-16T02:55:39.635Z,12.75
2023-05-16T02:56:39.412Z,12.71
2023-05-16T02:57:39.433Z,12.68
2023-05-16T02:58:39.465Z,12.71
2023-05-16T02:59:39.456Z,12.66
2023-05-16T03:00:39.501Z,12.5
2023-05-16T03:01:39.568Z,12.65
2023-05-16T03:02:39.887Z,12.73
2023-05-16T03:03:39.602Z,12.73
2023-05-16T03:04:39.552Z,12.68
2023-05-16T03:05:39.807Z,12.69
2023-05-16T03:06:40.026Z,12.69
2023-05-16T03:07:39.670Z,12.68
2023-05-16T03:08:39.628Z,12.7
2023-05-16T03:09:39.617Z,12.71
2023-05-16T03:10:39.631Z,12.67
2023-05-16T03:11:39.650Z,12.71
2023-05-16T03:12:39.621Z,12.69
2023-05-16T03:13:39.661Z,12.72
2023-05-16T03:14:39.930Z,12.67
2023-05-16T03:15:39.684Z,12.67
2023-05-16T03:16:39.843Z,12.59
2023-05-16T03:17:39.787Z,12.61
2023-05-16T03:18:39.779Z,12.57
2023-05-16T03:19:39.762Z,12.64
2023-05-16T03:20:39.740Z,12.61
2023-05-16T03:21:39.762Z,12.68
2023-05-16T03:22:39.775Z,12.69
2023-05-16T03:23:39.783Z,12.73
2023-05-16T03:24:39.816Z,12.8
2023-05-16T03:25:39.849Z,12.76
2023-05-16T03:26:39.828Z,12.83
2023-05-16T03:27:39.868Z,12.83
2023-05-16T03:28:39.886Z,12.78
2023-05-16T03:29:39.855Z,12.76
2023-05-16T03:30:39.851Z,12.71
2023-05-16T03:31:39.916Z,12.62
2023-05-16T03:32:39.956Z,12.62
2023-05-16T03:33:39.906Z,12.64
2023-05-16T03:34:39.946Z,12.61
2023-05-16T03:35:40.198Z,12.61
2023-05-16T03:36:41.351Z,12.62
2023-05-16T03:37:39.989Z,12.66
2023-05-16T03:38:40.028Z,12.75
2023-05-16T03:39:40.048Z,12.79
2023-05-16T03:40:40.024Z,12.8
2023-05-16T03:41:40.055Z,12.73
2023-05-16T03:42:40.026Z,12.63
2023-05-16T03:43:40.086Z,12.57
2023-05-16T03:44:40.098Z,12.65
2023-05-16T03:45:40.210Z,12.67
2023-05-16T03:46:40.119Z,12.67
2023-05-16T03:47:40.159Z,12.72
2023-05-16T03:48:40.120Z,12.75
2023-05-16T03:49:40.303Z,12.7
2023-05-16T03:50:41.181Z,12.66
2023-05-16T03:51:40.154Z,12.7
2023-05-16T03:52:40.157Z,12.7
2023-05-16T03:53:40.247Z,12.63
2023-05-16T03:54:40.228Z,12.56
2023-05-16T03:55:40.207Z,12.63
2023-05-16T03:56:40.241Z,12.62
2023-05-16T03:57:40.774Z,12.63
2023-05-16T03:58:40.271Z,12.62
2023-05-16T03:59:40.283Z,12.53
2023-05-16T04:00:40.282Z,12.53
2023-05-16T04:01:40.316Z,12.44
2023-05-16T04:02:40.964Z,12.46
2023-05-16T04:03:40.347Z,12.44
2023-05-16T04:04:40.366Z,12.46
2023-05-16T04:05:40.678Z,12.35
2023-05-16T04:06:40.357Z,12.43
2023-05-16T04:07:40.615Z,12.43
2023-05-16T04:08:40.414Z,12.38
2023-05-16T04:09:40.644Z,12.32
2023-05-16T04:10:40.438Z,12.19
2023-05-16T04:11:40.532Z,12.24
2023-05-16T04:12:40.462Z,12.33
2023-05-16T04:13:40.533Z,12.37
2023-05-16T04:14:40.494Z,12.4
2023-05-16T04:15:40.510Z,12.39
2023-05-16T04:16:40.762Z,12.42
2023-05-16T04:17:40.690Z,12.36
2023-05-16T04:18:40.574Z,12.2
2023-05-16T04:19:40.545Z,12.25
2023-05-16T04:20:42.343Z,12.33
2023-05-16T04:21:40.593Z,12.32
2023-05-16T04:22:40.632Z,12.29
2023-05-16T04:23:41.123Z,12.25
2023-05-16T04:24:40.654Z,12.35
2023-05-16T04:25:40.651Z,12.38
2023-05-16T04:26:40.689Z,12.31
2023-05-16T04:27:40.915Z,12.26
2023-05-16T04:28:40.768Z,12.31
2023-05-16T04:29:40.751Z,12.23
2023-05-16T04:30:40.708Z,12.17
2023-05-16T04:31:40.784Z,12.21
2023-05-16T04:32:40.844Z,12.19
2023-05-16T04:33:40.848Z,12.22
2023-05-16T04:34:40.817Z,12.17
2023-05-16T04:35:41.229Z,12.27
2023-05-16T04:36:40.836Z,12.32
2023-05-16T04:37:40.864Z,12.18
2023-05-16T04:38:40.865Z,12.31
2023-05-16T04:39:42.291Z,12.28
2023-05-16T04:40:40.929Z,12.28
2023-05-16T04:41:40.946Z,12.14
2023-05-16T04:42:40.936Z,12.07
2023-05-16T04:43:41.028Z,12.14
2023-05-16T04:44:40.987Z,12.31
2023-05-16T04:45:40.987Z,12.14
2023-05-16T04:46:41.018Z,12.08
2023-05-16T04:47:41.031Z,12.05
2023-05-16T04:48:41.401Z,11.97
2023-05-16T04:49:41.019Z,11.9
2023-05-16T04:50:41.068Z,12.09
2023-05-16T04:51:41.069Z,12.07
2023-05-16T04:52:41.096Z,12.16
2023-05-16T04:53:41.147Z,12.24
2023-05-16T04:54:41.147Z,12.21
2023-05-16T04:55:41.156Z,12.18
2023-05-16T04:56:41.157Z,12.24
2023-05-16T04:57:41.171Z,12.27
2023-05-16T04:58:42.803Z,12.23
2023-05-16T04:59:41.224Z,12.26
2023-05-16T05:00:41.232Z,12.16
2023-05-16T05:01:41.278Z,12.23
2023-05-16T05:02:41.276Z,12.29
2023-05-16T05:03:41.301Z,12.24
2023-05-16T05:04:41.351Z,12.28
2023-05-16T05:05:41.571Z,12.22
2023-05-16T05:06:41.349Z,12.26
2023-05-16T05:07:41.353Z,12.29
2023-05-16T05:08:41.451Z,12.26
2023-05-16T05:09:41.367Z,12.26
2023-05-16T05:10:41.390Z,12.19
2023-05-16T05:11:41.401Z,12.15
2023-05-16T05:12:41.942Z,12.1
2023-05-16T05:13:41.558Z,12.18
2023-05-16T05:14:41.435Z,12.18
2023-05-16T05:15:41.594Z,12.15
2023-05-16T05:16:41.493Z,12.16
2023-05-16T05:17:41.665Z,12.14
2023-05-16T05:18:41.597Z,12.1
2023-05-16T05:19:41.864Z,12.15
2023-05-16T05:20:41.650Z,12.06
2023-05-16T05:21:41.587Z,12
2023-05-16T05:22:41.680Z,12.02
2023-05-16T05:23:41.602Z,12
2023-05-16T05:24:41.598Z,12.05
2023-05-16T05:25:41.809Z,12
2023-05-16T05:26:41.689Z,12.01
2023-05-16T05:27:41.693Z,12.05
2023-05-16T05:28:47.776Z,11.97
2023-05-16T05:29:42.221Z,12.01
2023-05-16T05:30:43.334Z,11.99
2023-05-16T05:31:42.307Z,11.97
2023-05-16T05:32:42.255Z,12.05
2023-05-16T05:33:42.251Z,12.06
2023-05-16T05:34:42.306Z,11.92
2023-05-16T05:35:42.358Z,11.89
2023-05-16T05:36:42.300Z,11.86
2023-05-16T05:37:42.329Z,11.87
2023-05-16T05:38:42.332Z,11.94
2023-05-16T05:39:42.347Z,11.96
2023-05-16T05:40:42.398Z,11.94
2023-05-16T05:41:42.399Z,11.96
2023-05-16T05:42:44.170Z,12.05
2023-05-16T05:43:42.495Z,12.09
2023-05-16T05:44:42.494Z,12.08
2023-05-16T05:45:43.004Z,12.1
2023-05-16T05:46:42.707Z,12.05
2023-05-16T05:47:43.152Z,12.02
2023-05-16T05:48:42.786Z,12.05
2023-05-16T05:49:42.816Z,11.98
2023-05-16T05:50:42.757Z,11.9
2023-05-16T05:51:42.595Z,11.96
2023-05-16T05:52:42.885Z,11.9
2023-05-16T05:53:42.662Z,11.97
2023-05-16T05:54:42.658Z,11.97
2023-05-16T05:55:42.687Z,12.04
2023-05-16T05:56:42.705Z,11.93
2023-05-16T05:57:42.697Z,11.96
2023-05-16T05:58:42.719Z,11.99
2023-05-16T05:59:42.729Z,12.06
2023-05-16T06:00:42.959Z,12.07
2023-05-16T06:01:43.086Z,12.05
2023-05-16T06:02:43.027Z,12.07
2023-05-16T06:03:43.046Z,11.93
2023-05-16T06:04:42.876Z,12.01
2023-05-16T06:05:43.023Z,12.01
2023-05-16T06:06:42.896Z,12
2023-05-16T06:07:42.936Z,12.04
2023-05-16T06:08:42.918Z,12.09
2023-05-16T06:09:42.941Z,11.95
2023-05-16T06:10:42.963Z,11.97
2023-05-16T06:11:43.181Z,11.94
2023-05-16T06:12:42.986Z,11.92
2023-05-16T06:13:43.008Z,11.97
2023-05-16T06:14:42.984Z,11.95
2023-05-16T06:15:43.022Z,11.93
2023-05-16T06:16:43.141Z,12
2023-05-16T06:17:43.105Z,12.15
2023-05-16T06:18:43.256Z,12.07
2023-05-16T06:19:43.121Z,12.03
2023-05-16T06:20:43.121Z,11.98
2023-05-16T06:21:43.372Z,12.09
2023-05-16T06:22:43.155Z,12
2023-05-16T06:23:43.165Z,11.96
2023-05-16T06:24:43.159Z,12
2023-05-16T06:25:43.179Z,12
2023-05-16T06:26:43.230Z,11.94
2023-05-16T06:27:43.312Z,12
2023-05-16T06:28:43.274Z,11.99
2023-05-16T06:29:43.234Z,11.96
2023-05-16T06:30:43.334Z,11.9
2023-05-16T06:31:45.060Z,11.87
2023-05-16T06:32:43.404Z,11.91
2023-05-16T06:33:43.328Z,11.9
2023-05-16T06:34:43.605Z,11.87
2023-05-16T06:35:43.578Z,11.88
2023-05-16T06:36:43.366Z,11.86
2023-05-16T06:37:43.669Z,11.95
2023-05-16T06:38:43.453Z,11.87
2023-05-16T06:39:43.459Z,11.86
2023-05-16T06:40:43.419Z,11.83
2023-05-16T06:41:43.455Z,11.84
2023-05-16T06:42:43.483Z,11.83
2023-05-16T06:43:43.479Z,11.87
2023-05-16T06:44:43.499Z,11.86
2023-05-16T06:45:44.763Z,11.84
2023-05-16T06:46:43.611Z,11.86
2023-05-16T06:47:43.592Z,11.96
2023-05-16T06:48:43.604Z,11.96
2023-05-16T06:49:43.612Z,11.95
2023-05-16T06:50:46.948Z,11.9
2023-05-16T06:51:43.637Z,11.85
2023-05-16T06:52:43.644Z,11.85
2023-05-16T06:53:43.725Z,11.85
2023-05-16T06:54:43.718Z,11.83
2023-05-16T06:55:44.021Z,11.8
2023-05-16T06:56:44.117Z,11.85
2023-05-16T06:57:43.739Z,11.75
2023-05-16T06:58:43.790Z,11.78
2023-05-16T06:59:43.745Z,11.78
2023-05-16T07:00:43.743Z,11.73
2023-05-16T07:01:43.836Z,11.71
2023-05-16T07:02:43.911Z,11.79
2023-05-16T07:03:44.241Z,11.73
2023-05-16T07:04:43.830Z,11.71
2023-05-16T07:05:44.099Z,11.77
2023-05-16T07:06:43.877Z,11.76
2023-05-16T07:07:44.091Z,11.7
2023-05-16T07:08:43.952Z,11.71
2023-05-16T07:09:43.947Z,11.67
2023-05-16T07:10:44.215Z,11.73
2023-05-16T07:11:44.031Z,11.68
2023-05-16T07:12:44.017Z,11.69
2023-05-16T07:13:44.440Z,11.64
2023-05-16T07:14:44.009Z,11.66
2023-05-16T07:15:44.035Z,11.66
2023-05-16T07:16:44.146Z,11.66
2023-05-16T07:17:44.097Z,11.56
2023-05-16T07:18:44.499Z,11.6
2023-05-16T07:19:44.109Z,11.64
2023-05-16T07:20:44.128Z,11.63
2023-05-16T07:21:44.155Z,11.66
2023-05-16T07:22:44.180Z,11.58
2023-05-16T07:23:44.162Z,11.65
2023-05-16T07:24:44.179Z,11.59
2023-05-16T07:25:44.183Z,11.49
2023-05-16T07:26:44.209Z,11.52
2023-05-16T07:27:44.195Z,11.58
2023-05-16T07:28:44.590Z,11.62
2023-05-16T07:29:44.266Z,11.55
2023-05-16T07:30:44.247Z,11.57
2023-05-16T07:31:44.361Z,11.5
2023-05-16T07:32:44.356Z,11.51
2023-05-16T07:33:44.490Z,11.47
2023-05-16T07:34:44.338Z,11.47
2023-05-16T07:35:44.341Z,11.46
2023-05-16T07:36:44.382Z,11.49
2023-05-16T07:37:44.393Z,11.5
2023-05-16T07:38:44.632Z,11.52
2023-05-16T07:39:44.422Z,11.55
2023-05-16T07:40:44.460Z,11.5
2023-05-16T07:41:44.416Z,11.48
2023-05-16T07:42:44.473Z,11.53
2023-05-16T07:43:44.469Z,11.54
2023-05-16T07:44:44.483Z,11.54
2023-05-16T07:45:44.660Z,11.55
2023-05-16T07:46:44.767Z,11.57
2023-05-16T07:47:44.553Z,11.54
2023-05-16T07:48:44.527Z,11.6
2023-05-16T07:49:44.579Z,11.56
2023-05-16T07:50:44.583Z,11.57
2023-05-16T07:51:44.573Z,11.6
2023-05-16T07:52:44.820Z,11.53
2023-05-16T07:53:44.637Z,11.56
2023-05-16T07:54:46.512Z,11.54
2023-05-16T07:55:44.810Z,11.65
2023-05-16T07:56:44.964Z,11.66
2023-05-16T07:57:44.688Z,11.61
2023-05-16T07:58:44.748Z,11.64
2023-05-16T07:59:45.118Z,11.63
2023-05-16T08:00:44.758Z,11.63
2023-05-16T08:01:44.740Z,11.64
2023-05-16T08:02:44.928Z,11.65
2023-05-16T08:03:44.855Z,11.67
2023-05-16T08:04:44.772Z,11.61
2023-05-16T08:05:45.233Z,11.66
2023-05-16T08:06:44.838Z,11.66
2023-05-16T08:07:44.871Z,11.67
2023-05-16T08:08:44.865Z,11.61
2023-05-16T08:09:44.879Z,11.65
2023-05-16T08:10:44.925Z,11.64
2023-05-16T08:11:44.919Z,11.65
2023-05-16T08:12:44.992Z,11.73
2023-05-16T08:13:44.958Z,11.71
2023-05-16T08:14:44.952Z,11.7
2023-05-16T08:15:45.102Z,11.68
2023-05-16T08:16:45.246Z,11.7
2023-05-16T08:17:45.072Z,11.69
2023-05-16T08:18:45.079Z,11.65
2023-05-16T08:19:45.042Z,11.66
2023-05-16T08:20:45.066Z,11.67
2023-05-16T08:21:45.073Z,11.67
2023-05-16T08:22:45.093Z,11.71
2023-05-16T08:23:45.110Z,11.72
2023-05-16T08:24:45.111Z,11.74
2023-05-16T08:25:45.204Z,11.77
2023-05-16T08:26:45.160Z,11.76
2023-05-16T08:27:45.783Z,11.77
2023-05-16T08:28:45.189Z,11.84
2023-05-16T08:29:45.175Z,11.75
2023-05-16T08:30:47.826Z,11.79
2023-05-16T08:31:45.320Z,11.75
2023-05-16T08:32:45.272Z,11.76
2023-05-16T08:33:45.252Z,11.76
2023-05-16T08:34:45.598Z,11.67
2023-05-16T08:35:45.333Z,11.69
2023-05-16T08:36:45.358Z,11.69
2023-05-16T08:37:45.357Z,11.77
2023-05-16T08:38:45.563Z,11.79
2023-05-16T08:39:45.385Z,11.7
2023-05-16T08:40:45.411Z,11.74
2023-05-16T08:41:45.538Z,11.72
2023-05-16T08:42:45.548Z,11.72
2023-05-16T08:43:45.445Z,11.77
2023-05-16T08:44:45.862Z,11.74
2023-05-16T08:45:45.693Z,11.72
2023-05-16T08:46:50.134Z,11.7
2023-05-16T08:47:49.762Z,11.74
2023-05-16T08:48:46.901Z,11.75
2023-05-16T08:49:47.742Z,11.72
2023-05-16T08:50:46.685Z,11.7
2023-05-16T08:51:51.648Z,11.75
2023-05-16T08:52:51.167Z,11.79
2023-05-16T08:55:01.917Z,11.85
2023-05-16T08:55:53.188Z,11.81
2023-05-16T08:56:53.131Z,11.82
2023-05-16T08:57:53.277Z,11.9
2023-05-16T08:58:52.926Z,11.87
2023-05-16T08:59:56.890Z,11.87
2023-05-16T09:00:55.138Z,11.83
2023-05-16T09:01:55.505Z,11.92
2023-05-16T09:02:55.138Z,11.95
2023-05-16T09:03:55.179Z,11.93
2023-05-16T09:04:56.510Z,11.89
2023-05-16T09:05:54.949Z,11.85
2023-05-16T09:06:54.906Z,11.87
2023-05-16T09:07:54.815Z,11.85
2023-05-16T09:08:55.015Z,11.85
2023-05-16T09:09:54.879Z,11.89
2023-05-16T09:10:54.868Z,11.85
2023-05-16T09:11:55.924Z,11.79
2023-05-16T09:12:54.958Z,11.86
2023-05-16T09:13:54.937Z,11.78
2023-05-16T09:14:54.903Z,11.83
2023-05-16T09:18:00.362Z,11.84
2023-05-16T09:19:00.522Z,11.91
2023-05-16T09:19:56.962Z,11.9
2023-05-16T09:20:59.731Z,11.88
2023-05-16T09:21:57.009Z,11.87
2023-05-16T09:22:58.246Z,11.83
2023-05-16T09:23:57.428Z,11.82
2023-05-16T09:24:59.636Z,11.81
2023-05-16T09:25:57.722Z,11.77
2023-05-16T09:26:57.064Z,11.86
2023-05-16T09:27:58.269Z,11.91
2023-05-16T09:28:57.347Z,11.84
2023-05-16T09:29:57.939Z,11.84
2023-05-16T09:30:57.186Z,11.9
2023-05-16T09:32:04.413Z,11.93
2023-05-16T09:33:00.924Z,11.87
2023-05-16T09:34:00.728Z,11.87
2023-05-16T09:35:00.670Z,11.88
2023-05-16T09:36:00.997Z,11.92
2023-05-16T09:37:00.720Z,11.92
2023-05-16T09:38:00.764Z,11.87
2023-05-16T09:39:01.082Z,11.88
2023-05-16T09:40:00.797Z,11.95
2023-05-16T09:41:02.038Z,11.92
2023-05-16T09:42:01.019Z,11.93
2023-05-16T09:43:04.816Z,11.93
2023-05-16T09:44:04.205Z,11.98
2023-05-16T09:45:03.711Z,11.99
2023-05-16T09:46:01.411Z,12.04
2023-05-16T09:47:01.205Z,12.04
2023-05-16T09:48:08.772Z,12.03
2023-05-16T09:49:05.242Z,12
2023-05-16T09:50:05.856Z,12.06
2023-05-16T09:51:05.681Z,12.08
2023-05-16T09:52:05.823Z,12.01
2023-05-16T09:53:05.896Z,12.01
2023-05-16T09:54:07.680Z,11.98
2023-05-16T09:55:09.219Z,11.99
2023-05-16T09:56:10.974Z,12.01
2023-05-16T09:57:07.238Z,12.13
2023-05-16T09:58:07.245Z,12.03
2023-05-16T09:59:10.696Z,11.99
2023-05-16T10:00:10.259Z,12
2023-05-16T10:01:07.928Z,11.99
2023-05-16T10:02:07.515Z,12
2023-05-16T10:03:08.044Z,11.91
2023-05-16T10:04:07.436Z,12.07
2023-05-16T10:05:07.858Z,12.01
2023-05-16T10:06:07.999Z,12.07
2023-05-16T10:07:08.442Z,12.08
2023-05-16T10:08:07.797Z,12.07
2023-05-16T10:09:07.853Z,12.1
2023-05-16T10:10:08.205Z,12.06
2023-05-16T10:11:07.486Z,12.1
2023-05-16T10:12:08.367Z,12.1
2023-05-16T10:13:08.107Z,12
2023-05-16T10:14:09.303Z,12.07
2023-05-16T10:15:08.511Z,12.12
2023-05-16T10:16:10.118Z,12.03
2023-05-16T10:17:08.115Z,12.11
2023-05-16T10:18:09.673Z,12.02
2023-05-16T10:19:07.896Z,12.05
2023-05-16T10:20:10.004Z,12.11
2023-05-16T10:21:11.514Z,12.1
2023-05-16T10:22:10.079Z,12.13
2023-05-16T10:23:09.670Z,12.12
2023-05-16T10:24:11.536Z,12.14
2023-05-16T10:25:12.692Z,12.19
2023-05-16T10:26:09.701Z,12.12
2023-05-16T10:27:09.474Z,12.14
2023-05-16T10:28:09.215Z,12.23
2023-05-16T10:29:09.228Z,12.18
2023-05-16T10:30:10.130Z,12.17
2023-05-16T10:31:10.748Z,12.19
2023-05-16T10:32:09.963Z,12.22
2023-05-16T10:33:11.048Z,12.3
2023-05-16T10:34:09.669Z,12.27
2023-05-16T10:35:09.464Z,12.32
2023-05-16T10:36:10.515Z,12.31
2023-05-16T10:37:09.656Z,12.3
2023-05-16T10:38:10.314Z,12.33
2023-05-16T10:39:09.391Z,12.38
2023-05-16T10:40:09.997Z,12.36
2023-05-16T10:41:09.629Z,12.31
2023-05-16T10:42:09.281Z,12.38
2023-05-16T10:43:09.609Z,12.38
2023-05-16T10:44:15.458Z,12.43
2023-05-16T10:45:20.893Z,12.43
2023-05-16T10:46:12.291Z,12.45
2023-05-16T10:47:12.327Z,12.46
2023-05-16T10:48:12.645Z,12.47
2023-05-16T10:49:21.734Z,12.54
2023-05-16T10:50:12.992Z,12.5
2023-05-16T10:52:13.941Z,12.56
2023-05-16T10:53:23.625Z,12.52
2023-05-16T10:54:15.323Z,12.58
2023-05-16T10:55:15.383Z,12.54
2023-05-16T10:56:15.327Z,12.61
2023-05-16T10:57:17.097Z,12.59
2023-05-16T10:59:23.323Z,12.55
2023-05-16T11:00:22.551Z,12.67
2023-05-16T11:02:34.101Z,12.75
2023-05-16T11:03:28.604Z,12.87
2023-05-16T11:05:27.522Z,12.89
2023-05-16T11:06:27.669Z,12.94
2023-05-16T11:08:28.580Z,12.96
2023-05-16T11:09:28.574Z,12.93
2023-05-16T11:10:28.628Z,12.93
2023-05-16T11:13:34.415Z,12.98
2023-05-16T11:14:36.426Z,12.89
2023-05-16T11:15:34.436Z,12.9
2023-05-16T11:16:35.392Z,12.9
2023-05-16T11:17:41.409Z,12.86
2023-05-16T11:18:49.531Z,12.88
2023-05-16T11:19:47.970Z,12.92
2023-05-16T11:20:44.652Z,12.87
2023-05-16T11:22:49.196Z,12.82
2023-05-16T11:24:53.129Z,12.86
2023-05-16T11:25:53.263Z,12.83
2023-05-16T11:26:53.244Z,12.81
2023-05-16T11:27:51.692Z,12.8
2023-05-16T11:28:53.157Z,12.78
2023-05-16T11:29:52.342Z,12.71
2023-05-16T11:30:52.699Z,12.7
2023-05-16T11:31:52.753Z,12.67
2023-05-16T11:32:51.787Z,12.63
2023-05-16T11:33:52.007Z,12.63
2023-05-16T11:34:52.272Z,12.59
2023-05-16T11:36:52.445Z,12.69
2023-05-16T11:37:52.488Z,12.59
2023-05-16T11:38:52.432Z,12.63
2023-05-16T11:39:52.615Z,12.6
2023-05-16T11:40:52.489Z,12.55
2023-05-16T11:41:53.682Z,12.57
2023-05-16T11:42:52.708Z,12.54
2023-05-16T11:43:52.515Z,12.48
2023-05-16T11:45:54.789Z,12.39
2023-05-16T11:46:54.549Z,12.42
2023-05-16T11:47:54.730Z,12.5
2023-05-16T11:48:54.535Z,12.44
2023-05-16T11:49:57.565Z,12.42
2023-05-16T11:50:54.638Z,12.45
2023-05-16T11:51:54.902Z,12.44
2023-05-16T11:52:55.135Z,12.45
2023-05-16T11:53:54.738Z,12.44
2023-05-16T11:54:54.650Z,12.42
2023-05-16T11:55:56.043Z,12.41
2023-05-16T11:56:54.668Z,12.42
2023-05-16T11:57:55.268Z,12.4
2023-05-16T11:58:54.856Z,12.42
2023-05-16T11:59:54.682Z,12.49
2023-05-16T12:00:54.798Z,12.47
2023-05-16T12:01:54.728Z,12.49
2023-05-16T12:02:55.273Z,12.48
2023-05-16T12:03:57.893Z,12.46
2023-05-16T12:04:55.130Z,12.46
2023-05-16T12:05:55.705Z,12.46
2023-05-16T12:06:59.113Z,12.49
2023-05-16T12:07:55.316Z,12.5
2023-05-16T12:08:55.351Z,12.5
2023-05-16T12:09:55.351Z,12.53
2023-05-16T12:10:55.916Z,12.49
2023-05-16T12:11:55.434Z,12.52
2023-05-16T12:12:55.638Z,12.52
2023-05-16T12:13:55.664Z,12.53
2023-05-16T12:14:55.642Z,12.52
2023-05-16T12:15:55.631Z,12.52
2023-05-16T12:16:55.693Z,12.5
2023-05-16T12:17:55.655Z,12.49
2023-05-16T12:18:55.658Z,12.51
2023-05-16T12:19:55.741Z,12.52
2023-05-16T12:20:55.582Z,12.56
2023-05-16T12:21:55.553Z,12.54
2023-05-16T12:22:57.484Z,12.47
2023-05-16T12:23:56.194Z,12.48
2023-05-16T12:24:58.992Z,12.49
2023-05-16T12:25:56.996Z,12.46
2023-05-16T12:26:57.052Z,12.43
2023-05-16T12:28:00.728Z,12.5
2023-05-16T12:28:57.545Z,12.44
2023-05-16T12:29:58.507Z,12.44
2023-05-16T12:30:57.089Z,12.43
2023-05-16T12:31:57.124Z,12.48
2023-05-16T12:34:00.636Z,12.43
2023-05-16T12:35:01.267Z,12.44
2023-05-16T12:36:00.614Z,12.43
2023-05-16T12:37:00.690Z,12.4
2023-05-16T12:38:03.920Z,12.41
2023-05-16T12:39:01.302Z,12.4
2023-05-16T12:40:00.702Z,12.39
2023-05-16T12:41:00.704Z,12.38
2023-05-16T12:42:04.960Z,12.36
2023-05-16T12:43:01.672Z,12.43
2023-05-16T12:44:10.788Z,12.41
2023-05-16T12:45:02.482Z,12.36
2023-05-16T12:46:02.549Z,12.34
2023-05-16T12:47:02.653Z,12.32
2023-05-16T12:48:05.822Z,12.34
2023-05-16T12:49:02.905Z,12.34
2023-05-16T12:50:02.716Z,12.35
2023-05-16T12:51:10.684Z,12.27
2023-05-16T12:52:11.943Z,12.34
2023-05-16T12:53:12.761Z,12.42
2023-05-16T12:54:10.646Z,12.35
2023-05-16T12:55:09.450Z,12.39
2023-05-16T12:56:09.565Z,12.4
2023-05-16T12:57:09.499Z,12.46
2023-05-16T12:58:10.206Z,12.51
2023-05-16T12:59:09.560Z,12.58
2023-05-16T13:00:12.216Z,12.63
2023-05-16T13:01:09.571Z,12.68
2023-05-16T13:02:09.542Z,12.75
2023-05-16T13:03:09.653Z,12.74
2023-05-16T13:04:10.752Z,12.82
2023-05-16T13:05:09.776Z,12.89
2023-05-16T13:06:09.579Z,12.86
2023-05-16T13:07:10.620Z,13.02
2023-05-16T13:08:09.662Z,13.01
2023-05-16T13:09:09.622Z,13.03
2023-05-16T13:10:10.460Z,12.99
2023-05-16T13:11:09.683Z,12.99
2023-05-16T13:12:09.692Z,13.14
2023-05-16T13:13:09.980Z,13.16
2023-05-16T13:14:10.412Z,13.11
2023-05-16T13:15:11.400Z,13.1
2023-05-16T13:16:10.462Z,13.01
2023-05-16T13:17:10.330Z,12.97
2023-05-16T13:18:10.372Z,12.94
2023-05-16T13:19:10.350Z,13
2023-05-16T13:20:10.700Z,12.93
2023-05-16T13:21:10.634Z,12.88
2023-05-16T13:22:10.390Z,12.87
2023-05-16T13:23:10.420Z,12.84
2023-05-16T13:24:10.436Z,12.84
2023-05-16T13:25:11.015Z,12.87
2023-05-16T13:26:10.528Z,12.87